createdAt,value
2023-04-04T00:01:54.460Z,68.00
2023-04-04T00:04:21.142Z,68.10
2023-04-04T00:06:47.844Z,68.40
2023-04-04T00:09:16.378Z,69.40
2023-04-04T00:11:42.954Z,69.10
2023-04-04T00:14:09.756Z,68.10
2023-04-04T00:16:36.334Z,67.60
2023-04-04T00:19:03.285Z,67.30
2023-04-04T00:21:30.592Z,67.40
2023-04-04T00:23:59.661Z,66.70
2023-04-04T00:26:28.347Z,65.80
2023-04-04T00:28:56.121Z,66.00
2023-04-04T00:31:23.130Z,68.20
2023-04-04T00:33:50.058Z,69.90
2023-04-04T00:36:17.450Z,70.40
2023-04-04T00:38:44.118Z,69.30
2023-04-04T00:41:11.359Z,69.50
2023-04-04T00:43:38.380Z,70.00
2023-04-04T00:46:05.323Z,70.20
2023-04-04T00:48:34.098Z,70.20
2023-04-04T00:51:00.768Z,70.40
2023-04-04T00:53:27.842Z,69.50
2023-04-04T00:55:56.850Z,69.00
2023-04-04T00:58:25.174Z,68.00
2023-04-04T01:00:54.569Z,67.50
2023-04-04T01:03:21.659Z,67.50
2023-04-04T01:05:48.450Z,67.50
2023-04-04T01:08:17.779Z,67.30
2023-04-04T01:10:44.399Z,67.50
2023-04-04T01:13:10.960Z,67.40
2023-04-04T01:15:37.539Z,66.60
2023-04-04T01:18:05.882Z,66.50
2023-04-04T01:20:33.819Z,66.70
2023-04-04T01:23:01.728Z,67.10
2023-04-04T01:25:36.898Z,67.40
2023-04-04T01:28:07.239Z,67.20
2023-04-04T01:30:35.337Z,67.30
2023-04-04T01:33:05.519Z,66.90
2023-04-04T01:35:35.124Z,66.30
2023-04-04T01:38:14.050Z,66.60
2023-04-04T01:40:43.727Z,66.30
2023-04-04T01:43:12.588Z,66.60
2023-04-04T01:45:39.438Z,67.30
2023-04-04T01:48:06.184Z,67.70
2023-04-04T01:50:32.846Z,67.20
2023-04-04T01:52:59.384Z,66.90
2023-04-04T01:55:26.010Z,67.00
2023-04-04T01:57:52.686Z,67.70
2023-04-04T02:00:19.299Z,67.70
2023-04-04T02:02:45.960Z,67.30
2023-04-04T02:05:12.613Z,68.20
2023-04-04T02:07:42.018Z,68.50
2023-04-04T02:10:11.141Z,67.90
2023-04-04T02:12:40.001Z,67.40
2023-04-04T02:15:06.932Z,66.80
2023-04-04T02:17:35.565Z,67.30
2023-04-04T02:20:02.344Z,68.10
2023-04-04T02:22:28.903Z,67.70
2023-04-04T02:24:58.021Z,67.00
2023-04-04T02:27:26.762Z,67.40
2023-04-04T02:29:55.460Z,67.00
2023-04-04T02:32:23.041Z,66.70
2023-04-04T02:34:49.635Z,67.10
2023-04-04T02:37:17.748Z,67.20
2023-04-04T02:39:44.363Z,66.70
2023-04-04T02:42:13.380Z,66.50
2023-04-04T02:44:39.980Z,66.10
2023-04-04T02:47:09.266Z,66.10
2023-04-04T02:49:38.356Z,66.40
2023-04-04T02:52:04.960Z,67.20
2023-04-04T02:54:31.782Z,67.60
2023-04-04T02:56:58.578Z,67.00
2023-04-04T02:59:25.991Z,66.90
2023-04-04T03:01:55.123Z,66.00
2023-04-04T03:04:21.709Z,66.20
2023-04-04T03:06:48.592Z,66.00
2023-04-04T03:09:15.956Z,67.20
2023-04-04T03:11:42.837Z,66.50
2023-04-04T03:14:09.461Z,67.60
2023-04-04T03:16:36.269Z,66.90
2023-04-04T03:19:02.891Z,68.20
2023-04-04T03:21:29.437Z,67.90
2023-04-04T03:23:56.393Z,67.40
2023-04-04T03:26:22.989Z,68.50
2023-04-04T03:28:49.591Z,68.30
2023-04-04T03:31:18.359Z,68.00
2023-04-04T03:33:45.388Z,67.60
2023-04-04T03:36:13.120Z,68.30
2023-04-04T03:38:42.301Z,68.10
2023-04-04T03:41:08.856Z,67.70
2023-04-04T03:43:35.597Z,68.60
2023-04-04T03:46:02.787Z,68.50
2023-04-04T03:48:29.471Z,70.40
2023-04-04T03:50:59.333Z,70.10
2023-04-04T03:53:28.292Z,69.00
2023-04-04T03:55:58.080Z,69.60
2023-04-04T03:58:24.767Z,68.70
2023-04-04T04:00:51.685Z,68.20
2023-04-04T04:03:18.349Z,71.00
2023-04-04T04:05:45.467Z,70.20
2023-04-04T04:08:14.545Z,71.30
2023-04-04T04:10:41.416Z,72.00
2023-04-04T04:13:10.772Z,71.40
2023-04-04T04:15:37.320Z,71.20
2023-04-04T04:18:04.076Z,71.90
2023-04-04T04:20:30.743Z,72.90
2023-04-04T04:22:57.315Z,72.50
2023-04-04T04:25:23.946Z,72.50
2023-04-04T04:27:50.811Z,72.70
2023-04-04T04:30:19.743Z,72.40
2023-04-04T04:32:46.478Z,72.40
2023-04-04T04:35:13.124Z,72.60
2023-04-04T04:37:39.702Z,72.80
2023-04-04T04:40:06.690Z,73.10
2023-04-04T04:42:33.269Z,72.80
2023-04-04T04:44:59.831Z,72.50
2023-04-04T04:47:26.472Z,72.70
2023-04-04T04:49:53.138Z,73.80
2023-04-04T04:52:19.704Z,74.20
2023-04-04T04:54:49.588Z,74.60
2023-04-04T04:57:16.227Z,74.40
2023-04-04T04:59:45.757Z,74.40
2023-04-04T05:02:12.412Z,73.80
2023-04-04T05:04:41.148Z,73.70
2023-04-04T05:07:08.299Z,73.50
2023-04-04T05:09:37.378Z,71.70
2023-04-04T05:12:04.363Z,71.90
2023-04-04T05:14:31.064Z,71.30
2023-04-04T05:16:57.710Z,71.40
2023-04-04T05:19:24.383Z,69.90
2023-04-04T05:21:54.088Z,69.30
2023-04-04T05:24:23.503Z,69.20
2023-04-04T05:26:50.045Z,69.20
2023-04-04T05:29:16.894Z,69.40
2023-04-04T05:31:43.483Z,68.70
2023-04-04T05:34:12.513Z,69.00
2023-04-04T05:36:39.200Z,69.20
2023-04-04T05:39:06.313Z,70.00
2023-04-04T05:41:35.301Z,69.10
2023-04-04T05:44:01.922Z,69.10
2023-04-04T05:46:29.632Z,68.70
2023-04-04T05:48:56.499Z,68.80
2023-04-04T05:51:23.063Z,68.30
2023-04-04T05:53:52.246Z,68.70
2023-04-04T05:56:18.923Z,69.50
2023-04-04T05:58:46.927Z,68.50
2023-04-04T06:01:13.606Z,69.40
2023-04-04T06:03:40.396Z,69.30
2023-04-04T06:06:07.299Z,69.00
2023-04-04T06:08:43.183Z,69.50
2023-04-04T06:11:19.386Z,69.00
2023-04-04T06:13:48.554Z,69.40
2023-04-04T06:16:15.310Z,71.00
2023-04-04T06:18:41.985Z,69.80
2023-04-04T06:21:08.542Z,69.70
2023-04-04T06:23:37.507Z,69.40
2023-04-04T06:26:04.210Z,68.80
2023-04-04T06:28:30.794Z,67.10
2023-04-04T06:30:59.874Z,67.30
2023-04-04T06:33:29.158Z,67.50
2023-04-04T06:35:55.830Z,66.60
2023-04-04T06:38:24.928Z,67.50
2023-04-04T06:40:51.488Z,67.40
2023-04-04T06:43:18.123Z,66.70
2023-04-04T06:45:47.298Z,66.30
2023-04-04T06:48:16.804Z,65.50
2023-04-04T06:50:46.150Z,65.40
2023-04-04T06:53:15.854Z,65.80
2023-04-04T06:55:44.602Z,65.00
2023-04-04T06:58:13.539Z,65.40
2023-04-04T07:00:40.732Z,65.00
2023-04-04T07:03:08.029Z,65.40
2023-04-04T07:05:39.329Z,64.70
2023-04-04T07:08:06.683Z,64.60
2023-04-04T07:10:33.308Z,63.30
2023-04-04T07:13:00.103Z,57.80
2023-04-04T07:15:29.287Z,52.00
2023-04-04T07:17:55.948Z,48.40
2023-04-04T07:20:22.657Z,45.10
2023-04-04T07:22:49.324Z,43.60
2023-04-04T07:25:18.108Z,47.00
2023-04-04T07:27:44.699Z,46.00
2023-04-04T07:30:11.761Z,47.10
2023-04-04T07:40:00.821Z,46.90
2023-04-04T07:42:31.110Z,47.10
2023-04-04T07:44:57.705Z,47.50
2023-04-04T07:47:24.281Z,47.40
2023-04-04T07:49:51.295Z,50.00
2023-04-04T07:52:20.356Z,47.00
2023-04-04T07:54:47.739Z,47.90
2023-04-04T07:57:14.429Z,46.00
2023-04-04T07:59:41.175Z,46.30
2023-04-04T08:02:10.210Z,47.70
2023-04-04T08:04:36.886Z,47.70
2023-04-04T08:07:03.536Z,46.00
2023-04-04T08:09:36.344Z,45.80
2023-04-04T08:12:08.557Z,46.60
2023-04-04T08:14:35.485Z,45.40
2023-04-04T08:17:07.058Z,46.10
2023-04-04T08:19:33.666Z,45.60
2023-04-04T08:22:00.211Z,46.20
2023-04-04T08:24:29.240Z,45.80
2023-04-04T08:27:04.982Z,44.20
2023-04-04T08:29:32.796Z,44.40
2023-04-04T08:31:59.514Z,45.80
2023-04-04T08:34:26.129Z,45.90
2023-04-04T08:36:54.882Z,46.20
2023-04-04T08:39:23.566Z,47.40
2023-04-04T08:41:54.359Z,45.70
2023-04-04T08:44:22.760Z,44.80
2023-04-04T08:46:50.144Z,42.80
2023-04-04T08:49:18.416Z,44.70
2023-04-04T08:51:45.752Z,45.30
2023-04-04T08:54:15.269Z,45.50
2023-04-04T08:56:44.228Z,45.40
2023-04-04T08:59:15.695Z,45.10
2023-04-04T09:01:44.967Z,46.20
2023-04-04T09:04:13.961Z,44.40
2023-04-04T09:06:40.779Z,43.90
2023-04-04T09:09:07.498Z,44.60
2023-04-04T09:11:34.814Z,43.20
2023-04-04T09:14:04.401Z,44.30
2023-04-04T09:16:31.298Z,44.30
2023-04-04T09:18:57.895Z,43.40
2023-04-04T09:21:24.569Z,43.60
2023-04-04T09:24:01.324Z,42.70
2023-04-04T09:26:27.917Z,43.20
2023-04-04T09:28:57.038Z,42.70
2023-04-04T09:31:24.549Z,42.50
2023-04-04T09:33:51.293Z,42.90
2023-04-04T09:36:21.038Z,41.40
2023-04-04T09:38:49.191Z,42.20
2023-04-04T09:41:16.477Z,41.00
2023-04-04T09:43:49.356Z,41.50
2023-04-04T09:46:19.030Z,42.80
2023-04-04T09:48:51.211Z,43.90
2023-04-04T09:51:17.792Z,42.80
2023-04-04T09:53:47.520Z,42.90
2023-04-04T09:56:14.113Z,42.90
2023-04-04T09:58:49.266Z,44.00
2023-04-04T10:01:23.696Z,43.50
2023-04-04T10:03:59.910Z,43.90
2023-04-04T10:06:29.725Z,43.00
2023-04-04T10:08:59.230Z,43.10
2023-04-04T10:11:30.677Z,42.70
2023-04-04T10:14:00.178Z,44.50
2023-04-04T10:16:27.054Z,42.50
2023-04-04T10:18:56.249Z,43.20
2023-04-04T10:21:23.137Z,42.80
2023-04-04T10:23:50.618Z,41.80
2023-04-04T10:26:17.191Z,43.60
2023-04-04T10:28:44.182Z,42.20
2023-04-04T10:31:26.213Z,42.90
2023-04-04T10:34:04.596Z,41.90
2023-04-04T10:36:36.471Z,42.40
2023-04-04T10:39:18.641Z,40.80
2023-04-04T10:41:46.121Z,42.40
2023-04-04T10:44:23.581Z,41.60
2023-04-04T10:46:53.558Z,41.90
2023-04-04T10:49:21.640Z,40.70
2023-04-04T10:51:56.362Z,41.40
2023-04-04T10:54:26.806Z,41.90
2023-04-04T10:56:53.923Z,41.00
2023-04-04T10:59:20.598Z,41.80
2023-04-04T11:01:54.630Z,41.40
2023-04-04T11:04:22.309Z,42.90
2023-04-04T11:07:05.046Z,41.70
2023-04-04T11:09:52.592Z,41.00
2023-04-04T11:12:42.523Z,41.20
2023-04-04T11:15:10.164Z,42.70
2023-04-04T11:17:49.274Z,41.10
2023-04-04T11:20:21.406Z,42.40
2023-04-04T11:22:52.537Z,42.20
2023-04-04T11:25:25.973Z,41.00
2023-04-04T11:27:56.536Z,42.80
2023-04-04T11:30:23.424Z,40.10
2023-04-04T11:33:03.907Z,41.50
2023-04-04T11:35:35.822Z,39.90
2023-04-04T11:38:02.532Z,41.60
2023-04-04T11:40:52.708Z,42.20
2023-04-04T11:43:20.342Z,39.80
2023-04-04T11:45:47.479Z,40.20
2023-04-04T11:48:17.685Z,42.10
2023-04-04T11:50:45.671Z,41.70
2023-04-04T11:53:12.846Z,41.00
2023-04-04T11:55:47.596Z,40.00
2023-04-04T11:58:16.161Z,41.30
2023-04-04T12:00:43.986Z,40.60
2023-04-04T12:03:12.304Z,40.50
2023-04-04T12:05:40.156Z,40.10
2023-04-04T12:08:08.507Z,40.90
2023-04-04T12:10:35.717Z,41.40
2023-04-04T12:13:05.576Z,39.50
2023-04-04T12:15:33.365Z,41.70
2023-04-04T12:18:02.764Z,41.40
2023-04-04T12:20:30.683Z,40.50
2023-04-04T12:22:57.524Z,41.40
2023-04-04T12:32:49.267Z,40.90
2023-04-04T12:35:16.009Z,41.30
2023-04-04T12:37:56.359Z,42.80
2023-04-04T12:40:25.388Z,40.80
2023-04-04T12:42:55.414Z,40.60
2023-04-04T12:45:22.991Z,41.10
2023-04-04T12:47:53.154Z,41.80
2023-04-04T12:50:23.331Z,41.00
2023-04-04T12:52:52.045Z,39.60
2023-04-04T12:55:20.629Z,40.00
2023-04-04T12:57:47.228Z,40.10
2023-04-04T13:00:14.017Z,40.90
2023-04-04T13:02:46.304Z,39.70
2023-04-04T13:05:13.862Z,40.10
2023-04-04T13:07:43.853Z,39.70
2023-04-04T13:10:14.567Z,39.00
2023-04-04T13:12:56.722Z,39.20
2023-04-04T13:15:25.452Z,38.60
2023-04-04T13:37:37.229Z,38.80
2023-04-04T13:40:03.995Z,38.50
2023-04-04T13:42:31.653Z,38.50
2023-04-04T13:44:58.401Z,39.00
2023-04-04T13:47:27.341Z,38.60
2023-04-04T13:49:54.994Z,38.80
2023-04-04T13:52:23.848Z,39.50
2023-04-04T13:54:50.628Z,37.80
2023-04-04T13:57:17.212Z,38.10
2023-04-04T13:59:43.810Z,38.60
2023-04-04T14:02:10.646Z,38.00
2023-04-04T14:09:31.738Z,38.80
2023-04-04T14:11:58.417Z,39.20
2023-04-04T14:14:25.223Z,38.10
2023-04-04T14:16:51.891Z,39.50
2023-04-04T14:19:18.492Z,37.80
2023-04-04T14:21:45.178Z,38.40
2023-04-04T14:24:11.738Z,38.40
2023-04-04T14:26:40.864Z,39.10
2023-04-04T14:29:07.437Z,37.50
2023-04-04T14:31:34.998Z,38.60
2023-04-04T14:34:01.889Z,38.70
2023-04-04T14:36:28.559Z,37.30
2023-04-04T14:38:55.254Z,37.80
2023-04-04T14:41:26.615Z,38.60
2023-04-04T14:43:53.183Z,37.50
2023-04-04T14:46:19.975Z,38.50
2023-04-04T14:48:48.840Z,39.40
2023-04-04T14:51:16.135Z,38.10
2023-04-04T14:53:42.663Z,38.70
2023-04-04T14:56:09.236Z,38.10
2023-04-04T14:58:35.945Z,38.60
2023-04-04T15:01:02.590Z,37.30
2023-04-04T15:03:29.296Z,38.60
2023-04-04T15:05:55.904Z,36.70
2023-04-04T15:08:24.912Z,36.90
2023-04-04T15:10:53.634Z,37.30
2023-04-04T15:13:22.377Z,37.00
2023-04-04T15:15:48.985Z,36.00
2023-04-04T15:18:16.956Z,37.00
2023-04-04T15:20:43.898Z,38.10
2023-04-04T15:23:13.221Z,37.80
2023-04-04T15:25:40.198Z,38.10
2023-04-04T15:28:06.832Z,37.60
2023-04-04T15:30:33.544Z,36.90
2023-04-04T15:33:00.229Z,36.90
2023-04-04T15:35:29.359Z,36.30
2023-04-04T15:37:56.138Z,36.70
2023-04-04T15:40:22.732Z,38.60
2023-04-04T15:42:49.412Z,37.70
2023-04-04T15:45:16.282Z,37.30
2023-04-04T15:47:43.550Z,37.50
2023-04-04T15:50:11.639Z,37.10
2023-04-04T15:52:38.324Z,36.70
2023-04-04T15:55:07.873Z,37.70
2023-04-04T15:57:34.506Z,37.30
2023-04-04T16:00:01.145Z,36.60
2023-04-04T16:02:27.869Z,37.90
2023-04-04T16:04:56.977Z,37.30
2023-04-04T16:07:25.022Z,37.70
2023-04-04T16:09:54.218Z,37.20
2023-04-04T16:12:20.816Z,36.90
2023-04-04T16:14:47.462Z,37.20
2023-04-04T16:17:16.744Z,37.90
2023-04-04T16:19:43.310Z,37.20
2023-04-04T16:22:13.609Z,36.80
2023-04-04T16:24:42.346Z,38.00
2023-04-04T16:27:08.969Z,37.20
2023-04-04T16:29:35.657Z,36.50
2023-04-04T16:32:02.256Z,37.00
2023-04-04T16:34:31.213Z,37.30
2023-04-04T16:36:57.811Z,37.50
2023-04-04T16:39:24.590Z,36.80
2023-04-04T16:41:51.223Z,37.60
2023-04-04T16:44:17.804Z,37.80
2023-04-04T16:46:44.566Z,37.50
2023-04-04T16:49:18.676Z,37.50
2023-04-04T16:51:46.147Z,37.50
2023-04-04T16:54:13.153Z,37.60
2023-04-04T16:56:44.845Z,37.60
2023-04-04T16:59:11.620Z,37.90
2023-04-04T17:01:40.726Z,38.20
2023-04-04T17:04:10.498Z,38.90
2023-04-04T17:06:37.120Z,38.50
2023-04-04T17:09:03.735Z,37.20
2023-04-04T17:11:30.909Z,38.70
2023-04-04T17:13:57.953Z,37.90
2023-04-04T17:16:27.903Z,37.50
2023-04-04T17:18:59.216Z,38.70
2023-04-04T17:21:26.249Z,38.50
2023-04-04T17:23:52.821Z,39.30
2023-04-04T17:26:19.515Z,38.90
2023-04-04T17:28:48.558Z,39.20
2023-04-04T17:31:15.753Z,39.50
2023-04-04T17:33:45.347Z,39.60
2023-04-04T17:36:12.029Z,40.20
2023-04-04T17:38:41.560Z,40.00
2023-04-04T17:41:08.284Z,40.50
2023-04-04T17:43:34.935Z,40.40
2023-04-04T17:46:06.420Z,40.20
2023-04-04T17:48:36.655Z,40.90
2023-04-04T17:51:06.189Z,41.70
2023-04-04T17:53:34.694Z,40.90
2023-04-04T17:56:01.637Z,41.20
2023-04-04T17:58:28.272Z,41.30
2023-04-04T18:00:57.364Z,41.20
2023-04-04T18:03:24.232Z,42.00
2023-04-04T18:05:52.668Z,42.30
2023-04-04T18:08:19.667Z,42.70
2023-04-04T18:10:46.359Z,42.70
2023-04-04T18:13:12.921Z,42.80
2023-04-04T18:15:39.635Z,43.10
2023-04-04T18:18:08.541Z,43.40
2023-04-04T18:20:37.714Z,42.90
2023-04-04T18:23:04.495Z,42.30
2023-04-04T18:25:34.566Z,42.50
2023-04-04T18:28:02.038Z,42.50
2023-04-04T18:30:28.916Z,43.20
2023-04-04T18:32:56.185Z,44.00
2023-04-04T18:35:25.577Z,44.30
2023-04-04T18:37:54.313Z,44.40
2023-04-04T18:40:20.999Z,44.50
2023-04-04T18:42:47.951Z,44.80
2023-04-04T18:45:22.837Z,45.90
2023-04-04T18:47:54.021Z,46.50
2023-04-04T18:50:23.048Z,46.30
2023-04-04T18:52:49.606Z,46.70
2023-04-04T18:55:16.239Z,46.80
2023-04-04T18:57:44.229Z,46.90
2023-04-04T19:00:11.616Z,47.20
2023-04-04T19:02:40.470Z,47.70
2023-04-04T19:05:10.777Z,48.60
2023-04-04T19:07:41.729Z,49.00
2023-04-04T19:10:10.891Z,49.80
2023-04-04T19:12:37.597Z,50.40
2023-04-04T19:15:06.916Z,50.50
2023-04-04T19:17:33.517Z,50.40
2023-04-04T19:20:00.404Z,50.50
2023-04-04T19:22:27.004Z,50.70
2023-04-04T19:24:53.596Z,51.30
2023-04-04T19:27:20.186Z,51.40
2023-04-04T19:29:46.770Z,51.40
2023-04-04T19:32:17.774Z,52.00
2023-04-04T19:34:44.557Z,53.10
2023-04-04T19:37:13.860Z,53.60
2023-04-04T19:39:43.634Z,54.60
2023-04-04T19:42:11.302Z,54.50
2023-04-04T19:44:38.607Z,55.00
2023-04-04T19:47:09.405Z,55.20
2023-04-04T19:49:38.026Z,55.50
2023-04-04T19:52:05.633Z,56.10
2023-04-04T19:54:34.700Z,56.40
2023-04-04T19:57:06.351Z,56.60
2023-04-04T19:59:45.326Z,56.20
2023-04-04T20:02:37.674Z,56.80
2023-04-04T20:05:39.649Z,57.30
2023-04-04T20:08:08.835Z,57.60
2023-04-04T20:10:42.395Z,57.20
2023-04-04T20:13:09.080Z,57.70
2023-04-04T20:15:47.647Z,57.40
2023-04-04T20:18:21.401Z,57.70
2023-04-04T20:21:00.309Z,58.30
2023-04-04T20:23:30.840Z,58.30
2023-04-04T20:26:04.042Z,57.80
2023-04-04T20:28:31.079Z,57.90
2023-04-04T20:31:00.730Z,58.50
2023-04-04T20:33:32.306Z,59.20
2023-04-04T20:36:04.516Z,59.80
2023-04-04T20:38:33.343Z,59.00
2023-04-04T20:41:00.486Z,58.80
2023-04-04T20:43:28.235Z,58.90
2023-04-04T20:45:57.234Z,59.60
2023-04-04T20:48:35.568Z,59.80
2023-04-04T20:51:04.672Z,58.50
2023-04-04T20:53:33.396Z,58.70
2023-04-04T20:56:00.917Z,58.30
2023-04-04T20:58:30.828Z,58.40
2023-04-04T21:00:58.787Z,57.60
2023-04-04T21:03:25.339Z,57.20
2023-04-04T21:05:52.988Z,56.50
2023-04-04T21:08:19.546Z,56.90
2023-04-04T21:10:50.625Z,56.20
2023-04-04T21:13:26.259Z,55.80
2023-04-04T21:15:55.806Z,55.60
2023-04-04T21:18:23.234Z,55.90
2023-04-04T21:20:49.860Z,56.30
2023-04-04T21:23:28.803Z,56.00
2023-04-04T21:26:08.548Z,56.20
2023-04-04T21:28:39.555Z,56.80
2023-04-04T21:31:13.399Z,57.00
2023-04-04T21:33:43.402Z,58.00
2023-04-04T21:36:11.635Z,58.10
2023-04-04T21:38:38.339Z,59.00
2023-04-04T21:41:14.601Z,58.30
2023-04-04T21:43:41.123Z,59.10
2023-04-04T21:46:07.760Z,58.80
2023-04-04T21:48:39.154Z,59.30
2023-04-04T21:51:06.050Z,59.20
2023-04-04T21:53:32.599Z,59.90
2023-04-04T21:56:01.323Z,59.00
2023-04-04T21:58:27.973Z,58.90
2023-04-04T22:00:54.527Z,59.80
2023-04-04T22:03:21.109Z,60.10
2023-04-04T22:05:48.003Z,61.00
2023-04-04T22:08:14.646Z,62.40
2023-04-04T22:10:47.395Z,61.70
2023-04-04T22:13:18.613Z,61.80
2023-04-04T22:15:53.814Z,62.40
2023-04-04T22:18:30.409Z,63.00
2023-04-04T22:20:58.208Z,63.40
2023-04-04T22:23:25.555Z,62.60
2023-04-04T22:25:54.416Z,61.30
2023-04-04T22:28:25.330Z,60.90
2023-04-04T22:30:54.209Z,60.30
2023-04-04T22:33:20.798Z,61.00
2023-04-04T22:35:48.033Z,60.40
2023-04-04T22:38:14.638Z,59.80
2023-04-04T22:40:43.462Z,59.90
2023-04-04T22:43:10.584Z,60.10
2023-04-04T22:45:37.221Z,60.50
2023-04-04T22:48:06.056Z,59.50
2023-04-04T22:50:35.334Z,59.30
2023-04-04T22:53:06.593Z,59.60
2023-04-04T22:55:34.489Z,59.20
2023-04-04T22:58:01.021Z,59.40
2023-04-04T23:00:27.600Z,60.40
2023-04-04T23:02:54.351Z,61.10
2023-04-04T23:05:21.079Z,60.50
2023-04-04T23:07:52.804Z,61.90
2023-04-04T23:10:21.916Z,61.10
2023-04-04T23:12:48.473Z,61.30
2023-04-04T23:15:17.175Z,61.50
2023-04-04T23:17:43.726Z,60.80
2023-04-04T23:20:10.289Z,60.70
2023-04-04T23:22:37.770Z,60.80
2023-04-04T23:25:07.462Z,61.10
2023-04-04T23:27:36.697Z,61.40
2023-04-04T23:30:03.898Z,60.50
2023-04-04T23:32:33.698Z,60.60
2023-04-04T23:35:00.299Z,60.60
2023-04-04T23:37:26.860Z,60.40
2023-04-04T23:39:53.414Z,61.30
2023-04-04T23:42:20.141Z,61.70
2023-04-04T23:44:46.695Z,62.90
2023-04-04T23:47:13.734Z,62.20
2023-04-04T23:49:40.588Z,61.70
2023-04-04T23:52:09.273Z,62.90
2023-04-04T23:54:36.210Z,62.40
2023-04-04T23:57:05.282Z,62.00
2023-04-04T23:59:32.005Z,63.00
